Chisholm Hibbing Airport
KHIB : rendu visible

Aérodrome :











RETROUVEZ-NOUS SUR...

 
LOGIN :

S'inscrire | Disclaimer

   EN    FR    IT 

 









Légende :    VFR   VFR Marginal   IFR   IFR Intensif   IFR Très Intensif
Visi : 
Plafond : 
>= 8 km
>= 3000ft
5 à 8 km
1000 à 3000 ft
1500m à 5 km
500 à 1000 ft
800 à 1500m
200 à 500 ft
< 800m
< 200 ft
Symboles :   Orages  Brouillard  Fortes neiges  Fortes précipitations  Vent > 20 kt






- Altitude de l'aérodrome : 1354 ft
- Code IATA : HIB


KHIB - Chisholm Hibbing

DERNIER METAR :
  • 191153Z AUTO 13003KT 1/2SM FZFG OVC002 M02/M03 A2966 RMK AO2 SLP064 I6001 T10221028 11022 21028 53004

METARs EXPIRÉS :
  • 191053Z AUTO 00000KT 1/2SM FZFG OVC002 M02/M03 A2965 RMK AO2 SLP061 I1000 T10221028
  • 190953Z AUTO 15004KT 3/4SM BR OVC002 M02/M03 A2965 RMK AO2 SLP059 T10221033

TAF KHIB
Valide du 19 à 12h jusqu'au 20 à 12h UTC


191140Z 1912/2012 00000KT 1/2SM -SN FG OVC002
FM191500 VRB03KT 3SM BR OVC005
FM191900 27004KT 4SM BR OVC003



MET'MAP, la Météo Aéronautique d'un coup d'oeil ! - Copyright ORBIFLY Décembre 2007 - Disclaimer

ORBIFLY MET'MAP TEAM :

Programmation & Développement : Alexandra Zaïnal
Conception & Développement : Baudouin d'Aumeries
Co-Programmation & Développement : Marc-Olivier Méhu
Soutien technique & logistique : Manuel Goepfert

Contact : metmap@orbifly.com




SOURCES & CREDITS :

   NOAA       Earth
Advisory